Latest Coastal Weather Observations for Portland Harbour

IDV60701

Issued at 4:51 am EDT Wednesday 10 February 2016 (issued every 10 minutes, with the page automatically refreshed every 10 minutes)

About coastal observations | Map of coastal stations | Coastal observations for VIC | Marine services | Other Formats
Station Details ID: 090192 Name: PORTLAND NTC AWS Lat: -38.34 Lon: 141.61 Height: 0.0 m
Data from the previous 72 hours. | See also: Recent months for locations in Victoria
Date/Time
EDT
Temp

°C
Wind Pressure Rain
since 9am
mm
Weather Cloud Vis
km
Sea
Height
m
Swell
Dir
 
Speed
knots
Gust
knots
hPa Trend Height
m
Period
s
Dir
10/04:30am 17.4 SSE 7 9 1015.7 - - - - - - - - -
10/04:00am 17.7 ESE 7 10 1015.6 - - - - - - - - -
10/03:30am 17.7 SE 7 10 1015.9 - - - - - - - - -
10/03:00am 17.6 SE 8 11 1016.1 - - - - - - - - -
10/02:30am 17.9 ESE 8 11 1016.4 - - - - - - - - -
10/02:00am 18.0 SE 9 11 1017.0 - - - - - - - - -
10/01:30am 17.6 SSE 9 12 1017.3 - - - - - - - - -
10/01:00am 17.8 SE 9 11 1017.4 - - - - - - - - -
10/12:30am 17.8 SE 9 11 1017.4 - - - - - - - - -
10/12:00am 18.0 SE 9 13 1017.7 - - - - - - - - -
 
Date/Time
EDT
Temp

°C
Wind Pressure Rain
since 9am
mm
Weather Cloud Vis
km
Sea
Height
m
Swell
Dir
 
Speed
knots
Gust
knots
hPa Trend Height
m
Period
s
Dir
09/11:30pm 17.7 SSE 8 11 1017.9 - - - - - - - - -
09/11:00pm 17.8 SSE 7 10 1018.1 - - - - - - - - -
09/10:30pm 17.9 SSE 8 11 1018.4 - - - - - - - - -
09/10:00pm 18.0 SSE 8 10 1018.3 - - - - - - - - -
09/09:30pm 17.9 SSE 8 11 1018.2 - - - - - - - - -
09/09:00pm 18.2 SSE 8 10 1018.3 - - - - - - - - -
09/08:30pm 18.2 SSE 9 11 1018.5 - - - - - - - - -
09/08:00pm 18.4 SE 9 12 1018.5 - - - - - - - - -
09/07:30pm 18.6 SE 10 13 1018.4 - - - - - - - - -
09/07:00pm 18.8 SSE 10 13 1018.5 - - - - - - - - -
09/06:30pm 19.1 SSE 10 15 1018.4 - - - - - - - - -
09/06:00pm 19.0 SE 11 13 1018.3 - - - - - - - - -
09/05:30pm 18.8 SE 12 15 1018.5 - - - - - - - - -
09/05:00pm 19.0 SE 12 14 1018.8 - - - - - - - - -
09/04:30pm 19.2 ESE 11 13 1019.1 - - - - - - - - -
09/04:00pm 19.4 ESE 11 13 1019.3 - - - - - - - - -
09/03:30pm 19.2 SE 10 12 1019.6 - - - - - - - - -
09/03:00pm 18.9 ESE 10 12 1019.9 - - - - - - - - -
09/02:30pm 19.4 ESE 11 13 1020.1 - - - - - - - - -
09/02:00pm 19.0 SE 11 13 1020.5 - - - - - - - - -
09/01:30pm 19.1 SE 10 13 1020.8 - - - - - - - - -
09/01:00pm 18.8 SE 10 12 1021.0 - - - - - - - - -
09/12:30pm 18.8 ESE 10 12 1021.3 - - - - - - - - -
09/12:00pm 18.6 ESE 10 13 1021.6 - - - - - - - - -
09/11:30am 18.6 E 9 12 1021.8 - - - - - - - - -
09/11:00am 18.6 ESE 8 11 1021.9 - - - - - - - - -
09/10:30am 18.3 ESE 9 12 1022.1 - - - - - - - - -
09/10:00am 17.9 ESE 11 15 1022.2 - - - - - - - - -
09/09:30am 18.1 SE 11 14 1022.3 - - - - - - - - -
09/09:00am 18.0 ESE 9 12 1022.3 - - - - - - - - -
09/08:30am 17.6 ESE 10 13 1022.3 - - - - - - - - -
09/08:00am 17.7 SE 9 12 1022.2 - - - - - - - - -
09/07:30am 17.6 SE 9 11 1022.2 - - - - - - - - -
09/07:00am 17.3 SE 8 11 1022.2 - - - - - - - - -
09/06:30am 17.6 ESE 8 12 1021.9 - - - - - - - - -
09/06:00am 17.5 ESE 8 13 1021.6 - - - - - - - - -
09/05:30am 17.6 ESE 11 15 1021.6 - - - - - - - - -
09/05:00am 17.5 ESE 9 12 1021.5 - - - - - - - - -
09/04:30am 17.8 ESE 10 13 1021.6 - - - - - - - - -
09/04:00am 17.7 ESE 11 14 1021.8 - - - - - - - - -
09/03:30am 17.8 SE 12 15 1021.8 - - - - - - - - -
09/03:00am 17.8 ESE 12 16 1022.2 - - - - - - - - -
09/02:30am 18.0 SE 13 17 1022.5 - - - - - - - - -
09/02:00am 18.0 SE 11 15 1022.7 - - - - - - - - -
09/01:30am 18.0 SE 11 15 1022.9 - - - - - - - - -
09/01:00am 17.9 SE 12 17 1023.3 - - - - - - - - -
09/12:30am 17.9 SE 12 15 1023.5 - - - - - - - - -
09/12:00am 17.9 SSE 10 14 1023.7 - - - - - - - - -
 
Date/Time
EDT
Temp

°C
Wind Pressure Rain
since 9am
mm
Weather Cloud Vis
km
Sea
Height
m
Swell
Dir
 
Speed
knots
Gust
knots
hPa Trend Height
m
Period
s
Dir
08/11:30pm 18.1 SE 12 19 1024.0 - - - - - - - - -
08/11:00pm 18.2 SE 11 15 1024.1 - - - - - - - - -
08/10:30pm 18.3 SSE 11 15 1024.2 - - - - - - - - -
08/10:00pm 18.5 SSE 11 15 1024.1 - - - - - - - - -
08/09:30pm 18.6 SE 10 15 1023.9 - - - - - - - - -
08/09:00pm 18.9 SSE 9 13 1023.8 - - - - - - - - -
08/08:30pm 18.9 SSE 11 14 1023.6 - - - - - - - - -
08/08:00pm 18.9 S 11 15 1023.4 - - - - - - - - -
08/07:30pm 19.3 S 12 17 1023.1 - - - - - - - - -
08/07:00pm 19.1 S 11 15 1022.8 - - - - - - - - -
08/06:30pm 19.7 S 11 16 1022.8 - - - - - - - - -
08/06:00pm 19.2 S 11 17 1022.9 - - - - - - - - -
08/05:30pm 19.6 S 12 18 1022.9 - - - - - - - - -
08/05:00pm 19.4 S 12 16 1023.1 - - - - - - - - -
08/04:30pm 19.8 S 11 15 1023.2 - - - - - - - - -
08/04:00pm 20.0 S 10 14 1023.2 - - - - - - - - -
08/03:30pm 19.5 S 10 15 1023.4 - - - - - - - - -
08/03:00pm 19.9 S 9 14 1023.4 - - - - - - - - -
08/02:30pm 19.6 SE 10 13 1023.5 - - - - - - - - -
08/02:00pm 19.5 ESE 9 13 1023.7 - - - - - - - - -
08/01:30pm 19.6 SE 8 11 1023.8 - - - - - - - - -
08/01:00pm 19.2 S 9 14 1024.2 - - - - - - - - -
08/12:30pm 19.2 SE 8 14 1024.2 - - - - - - - - -
08/12:00pm 18.7 SE 8 12 1024.2 - - - - - - - - -
08/11:30am 18.6 SE 9 14 1024.3 - - - - - - - - -
08/11:00am 18.4 ESE 10 13 1024.1 - - - - - - - - -
08/10:30am 18.5 SE 9 12 1024.1 - - - - - - - - -
08/10:00am 18.2 SE 10 15 1024.0 - - - - - - - - -
08/09:30am 18.1 SE 10 14 1023.9 - - - - - - - - -
08/09:00am 18.1 SSE 8 12 1023.7 - - - - - - - - -
08/08:30am 17.7 SE 9 12 1023.2 - - - - - - - - -
08/08:00am 17.5 S 7 9 1023.0 - - - - - - - - -
08/07:30am 17.2 S 7 10 1022.7 - - - - - - - - -
08/07:00am 17.4 SSE 6 9 1022.3 - - - - - - - - -
08/06:30am 17.3 S 8 11 1022.0 - - - - - - - - -
08/06:00am 17.2 SE 9 13 1021.7 - - - - - - - - -
08/05:30am 17.3 SSE 8 12 1021.5 - - - - - - - - -
08/05:00am 17.4 SE 8 13 1021.3 - - - - - - - - -
08/04:30am 17.4 SSE 7 11 1021.2 - - - - - - - - -
08/04:00am 17.7 SSE 8 12 1021.2 - - - - - - - - -
08/03:30am 17.6 SSE 6 9 1021.2 - - - - - - - - -
08/03:00am 17.7 SSE 6 9 1021.2 - - - - - - - - -
08/02:30am 17.8 SE 8 11 1021.3 - - - - - - - - -
08/02:00am 18.0 SSE 7 9 1021.5 - - - - - - - - -
08/01:30am 18.0 S 7 11 1021.6 - - - - - - - - -
08/01:00am 17.9 SSE 9 13 1021.8 - - - - - - - - -
08/12:30am 18.1 SSE 10 13 1021.7 - - - - - - - - -
08/12:00am 18.3 SSE 8 13 1021.5 - - - - - - - - -
 
Date/Time
EDT
Temp

°C
Wind Pressure Rain
since 9am
mm
Weather Cloud Vis
km
Sea
Height
m
Swell
Dir
 
Speed
knots
Gust
knots
hPa Trend Height
m
Period
s
Dir
07/11:30pm 18.5 S 9 13 1021.5 - - - - - - - - -
07/11:00pm 17.9 S 9 12 1021.5 - - - - - - - - -
07/10:30pm 18.2 S 11 16 1021.3 - - - - - - - - -
07/10:00pm 18.2 S 10 13 1021.0 - - - - - - - - -
07/09:30pm 18.6 S 9 13 1020.7 - - - - - - - - -
07/09:00pm 18.7 S 9 12 1020.3 - - - - - - - - -
07/08:30pm 19.1 S 10 13 1020.1 - - - - - - - - -
07/08:00pm 19.1 S 10 15 1019.6 - - - - - - - - -
07/07:30pm 19.4 S 10 15 1019.2 - - - - - - - - -
07/07:00pm 19.3 S 10 14 1018.9 - - - - - - - - -
07/06:30pm 19.7 S 10 13 1018.6 - - - - - - - - -
07/06:00pm 19.8 S 12 15 1018.4 - - - - - - - - -
07/05:30pm 19.6 S 11 15 1018.5 - - - - - - - - -
07/05:00pm 19.7 S 12 16 1018.5 - - - - - - - - -
07/04:30pm 19.8 S 12 17 1018.5 - - - - - - - - -
07/04:00pm 19.7 SSW 13 19 1018.4 - - - - - - - - -
07/03:30pm 20.2 SSW 12 19 1018.4 - - - - - - - - -
07/03:00pm 20.2 S 12 16 1018.4 - - - - - - - - -
07/02:30pm 20.3 SSW 11 15 1018.5 - - - - - - - - -
07/02:00pm 20.4 S 10 14 1018.4 - - - - - - - - -
07/01:30pm 20.1 S 13 16 1018.5 - - - - - - - - -
07/01:00pm 20.2 S 11 15 1018.5 - - - - - - - - -
07/12:30pm 20.2 S 10 14 1018.6 - - - - - - - - -
07/12:00pm 20.0 S 8 12 1018.3 - - - - - - - - -
07/11:30am 19.7 SSW 9 12 1018.5 - - - - - - - - -
07/11:00am 19.6 SSW 9 14 1018.6 - - - - - - - - -
07/10:30am 19.9 S 9 14 1018.5 - - - - - - - - -
07/10:00am 19.4 S 10 14 1018.2 - - - - - - - - -
07/09:30am 19.6 S 8 10 1018.0 - - - - - - - - -
07/09:00am 19.0 SSW 9 11 1017.9 - - - - - - - - -
07/08:30am 19.1 SSW 5 7 1017.3 - - - - - - - - -
07/08:00am 18.4 SSW 5 8 1016.8 - - - - - - - - -
07/07:30am 17.9 SSW 5 7 1016.6 - - - - - - - - -
07/07:00am 17.6 SSW 6 8 1016.5 - - - - - - - - -
07/06:30am 17.8 SW 6 8 1016.2 - - - - - - - - -
07/06:00am 17.9 SW 9 13 1016.1 - - - - - - - - -
07/05:30am 17.9 SSW 9 12 1015.7 - - - - - - - - -
07/05:00am 17.5 SW 8 11 1015.5 - - - - - - - - -

Other Formats:

Comma delimited format used in spreadsheet applications
http://www.bom.gov.au/fwo/IDV60701/IDV60701.95826.axf

JavaScript Object Notation format (JSON) in row-major order
http://www.bom.gov.au/fwo/IDV60701/IDV60701.95826.json